createdAt,value
2023-02-09T00:01:29.213Z,73.51
2023-02-09T00:03:57.216Z,73.75
2023-02-09T00:06:24.766Z,73.30
2023-02-09T00:08:51.531Z,73.73
2023-02-09T00:11:46.864Z,73.25
2023-02-09T00:14:16.112Z,73.15
2023-02-09T00:16:43.036Z,73.20
2023-02-09T00:19:11.070Z,72.96
2023-02-09T00:21:38.148Z,72.68
2023-02-09T00:24:05.684Z,72.40
2023-02-09T00:26:33.367Z,72.55
2023-02-09T00:29:00.332Z,72.30
2023-02-09T00:31:27.097Z,72.07
2023-02-09T00:33:53.885Z,71.71
2023-02-09T00:36:21.128Z,71.93
2023-02-09T00:38:47.902Z,71.44
2023-02-09T00:41:16.604Z,71.38
2023-02-09T00:43:43.644Z,71.44
2023-02-09T00:46:10.457Z,70.51
2023-02-09T00:48:37.189Z,70.57
2023-02-09T00:51:04.071Z,70.75
2023-02-09T00:53:30.730Z,70.71
2023-02-09T00:55:57.461Z,70.37
2023-02-09T00:58:24.133Z,69.92
2023-02-09T01:00:50.915Z,70.19
2023-02-09T01:03:17.806Z,69.85
2023-02-09T01:05:44.596Z,69.56
2023-02-09T01:08:11.255Z,69.51
2023-02-09T01:10:38.463Z,69.75
2023-02-09T01:13:05.464Z,69.05
2023-02-09T01:15:32.245Z,69.20
2023-02-09T01:17:59.422Z,68.81
2023-02-09T01:20:26.339Z,68.68
2023-02-09T01:22:53.059Z,68.21
2023-02-09T01:25:19.868Z,68.42
2023-02-09T01:27:46.533Z,68.14
2023-02-09T01:30:13.669Z,67.85
2023-02-09T01:32:40.593Z,67.58
2023-02-09T01:35:07.557Z,67.36
2023-02-09T01:37:35.544Z,67.09
2023-02-09T01:40:02.675Z,66.68
2023-02-09T01:42:29.363Z,66.66
2023-02-09T01:45:06.115Z,65.43
2023-02-09T01:47:37.089Z,64.88
2023-02-09T01:50:04.060Z,65.28
2023-02-09T01:52:30.933Z,65.25
2023-02-09T01:55:02.692Z,64.84
2023-02-09T01:57:37.345Z,64.62
2023-02-09T02:00:12.395Z,64.55
2023-02-09T02:02:40.146Z,64.07
2023-02-09T02:05:08.679Z,64.10
2023-02-09T02:07:44.399Z,64.31
2023-02-09T02:10:11.372Z,64.42
2023-02-09T02:12:38.962Z,64.08
2023-02-09T02:15:07.065Z,64.13
2023-02-09T02:17:49.291Z,63.85
2023-02-09T02:20:27.860Z,64.03
2023-02-09T02:23:03.419Z,64.06
2023-02-09T02:26:06.174Z,63.54
2023-02-09T02:28:51.558Z,62.86
2023-02-09T02:31:48.807Z,62.95
2023-02-09T02:34:21.387Z,63.26
2023-02-09T02:37:25.751Z,62.88
2023-02-09T02:40:11.039Z,63.47
2023-02-09T02:42:49.001Z,63.06
2023-02-09T02:45:43.431Z,63.06
2023-02-09T02:48:19.077Z,62.95
2023-02-09T02:50:53.608Z,63.00
2023-02-09T02:53:25.557Z,62.74
2023-02-09T02:55:55.305Z,63.26
2023-02-09T02:58:24.733Z,63.00
2023-02-09T03:00:55.553Z,62.75
2023-02-09T03:03:27.479Z,62.29
2023-02-09T03:05:54.338Z,62.59
2023-02-09T03:08:21.222Z,62.21
2023-02-09T03:10:48.470Z,62.50
2023-02-09T03:13:52.714Z,62.03
2023-02-09T03:16:48.532Z,62.35
2023-02-09T03:19:36.858Z,62.02
2023-02-09T03:22:32.816Z,62.16
2023-02-09T03:25:07.905Z,62.16
2023-02-09T03:27:41.173Z,62.06
2023-02-09T03:30:11.862Z,62.06
2023-02-09T03:32:44.483Z,62.24
2023-02-09T03:35:14.767Z,62.00
2023-02-09T03:37:41.434Z,61.62
2023-02-09T03:40:08.919Z,62.06
2023-02-09T03:42:35.695Z,62.12
2023-02-09T03:45:02.394Z,61.42
2023-02-09T03:47:30.941Z,61.31
2023-02-09T03:49:58.459Z,61.43
2023-02-09T03:52:25.470Z,61.04
2023-02-09T03:54:52.152Z,61.22
2023-02-09T03:57:18.923Z,61.36
2023-02-09T03:59:45.611Z,61.41
2023-02-09T04:02:13.318Z,60.53
2023-02-09T04:04:40.023Z,60.77
2023-02-09T04:07:07.217Z,60.93
2023-02-09T04:09:34.156Z,60.70
2023-02-09T04:12:00.857Z,60.77
2023-02-09T04:14:27.645Z,60.44
2023-02-09T04:16:54.333Z,60.83
2023-02-09T04:19:21.132Z,60.84
2023-02-09T04:21:47.841Z,60.76
2023-02-09T04:24:14.496Z,60.82
2023-02-09T04:26:41.161Z,60.45
2023-02-09T04:29:07.801Z,60.39
2023-02-09T04:31:35.056Z,60.58
2023-02-09T04:34:02.233Z,60.85
2023-02-09T04:36:29.032Z,60.68
2023-02-09T04:38:55.825Z,60.45
2023-02-09T04:41:22.642Z,60.56
2023-02-09T04:43:49.348Z,60.21
2023-02-09T04:46:17.446Z,60.09
2023-02-09T04:48:44.764Z,60.19
2023-02-09T04:51:11.668Z,59.84
2023-02-09T04:53:38.664Z,59.71
2023-02-09T04:56:05.925Z,59.97
2023-02-09T04:58:51.124Z,60.19
2023-02-09T05:01:24.043Z,60.12
2023-02-09T05:03:51.135Z,60.30
2023-02-09T05:06:18.419Z,60.00
2023-02-09T05:08:45.276Z,60.08
2023-02-09T05:11:12.747Z,59.45
2023-02-09T05:13:39.682Z,60.03
2023-02-09T05:16:12.929Z,60.03
2023-02-09T05:18:39.634Z,59.78
2023-02-09T05:21:06.448Z,59.88
2023-02-09T05:23:33.478Z,60.29
2023-02-09T05:26:00.266Z,60.09
2023-02-09T05:28:27.112Z,59.83
2023-02-09T05:30:54.258Z,60.12
2023-02-09T05:33:25.711Z,60.47
2023-02-09T05:35:55.790Z,60.27
2023-02-09T05:38:23.224Z,60.07
2023-02-09T05:40:51.004Z,60.20
2023-02-09T05:43:18.158Z,60.54
2023-02-09T05:45:46.021Z,60.39
2023-02-09T05:48:12.808Z,60.68
2023-02-09T05:50:39.742Z,60.12
2023-02-09T05:53:06.402Z,60.09
2023-02-09T05:55:33.076Z,60.12
2023-02-09T05:57:59.822Z,59.98
2023-02-09T06:00:29.710Z,59.93
2023-02-09T06:02:57.168Z,59.90
2023-02-09T06:05:24.215Z,60.01
2023-02-09T06:07:51.117Z,59.60
2023-02-09T06:10:18.909Z,59.66
2023-02-09T06:12:46.172Z,60.04
2023-02-09T06:15:13.496Z,59.58
2023-02-09T06:17:40.137Z,59.92
2023-02-09T06:20:07.392Z,60.26
2023-02-09T06:22:34.423Z,59.89
2023-02-09T06:25:01.107Z,59.95
2023-02-09T06:27:27.775Z,59.70
2023-02-09T06:29:54.466Z,59.72
2023-02-09T06:32:21.146Z,59.67
2023-02-09T06:34:47.808Z,59.96
2023-02-09T06:37:14.454Z,59.66
2023-02-09T06:39:41.137Z,59.92
2023-02-09T06:42:07.901Z,59.63
2023-02-09T06:44:34.538Z,59.33
2023-02-09T06:47:01.186Z,59.39
2023-02-09T06:49:27.869Z,59.33
2023-02-09T06:51:54.706Z,59.45
2023-02-09T06:54:21.866Z,59.54
2023-02-09T06:56:48.692Z,59.32
2023-02-09T06:59:15.684Z,59.46
2023-02-09T07:01:42.534Z,59.46
2023-02-09T07:04:09.289Z,59.16
2023-02-09T07:06:35.970Z,59.42
2023-02-09T07:09:02.700Z,59.14
2023-02-09T07:11:30.597Z,59.35
2023-02-09T07:13:57.365Z,59.27
2023-02-09T07:16:24.349Z,58.97
2023-02-09T07:18:51.372Z,58.87
2023-02-09T07:21:18.731Z,58.91
2023-02-09T07:23:46.941Z,59.29
2023-02-09T07:26:16.286Z,59.21
2023-02-09T07:28:43.168Z,59.04
2023-02-09T07:31:12.642Z,58.94
2023-02-09T07:33:39.710Z,58.99
2023-02-09T07:36:08.999Z,58.56
2023-02-09T07:38:36.347Z,58.86
2023-02-09T07:41:04.806Z,59.11
2023-02-09T07:43:31.906Z,58.85
2023-02-09T07:46:03.743Z,59.17
2023-02-09T07:48:31.411Z,58.72
2023-02-09T07:50:58.994Z,59.33
2023-02-09T07:53:26.626Z,59.19
2023-02-09T07:55:53.519Z,59.19
2023-02-09T07:58:21.297Z,59.42
2023-02-09T08:00:49.985Z,59.29
2023-02-09T08:03:20.277Z,58.87
2023-02-09T08:06:02.574Z,58.64
2023-02-09T08:08:29.335Z,58.99
2023-02-09T08:10:58.317Z,59.15
2023-02-09T08:13:27.531Z,59.08
2023-02-09T08:15:58.358Z,59.08
2023-02-09T08:18:30.872Z,59.16
2023-02-09T08:20:58.182Z,59.05
2023-02-09T08:23:34.396Z,59.04
2023-02-09T08:26:06.943Z,58.94
2023-02-09T08:28:43.757Z,59.23
2023-02-09T08:31:12.557Z,59.31
2023-02-09T08:33:39.893Z,59.53
2023-02-09T08:36:06.995Z,59.17
2023-02-09T08:38:35.236Z,59.34
2023-02-09T08:41:13.353Z,59.29
2023-02-09T08:43:40.479Z,59.32
2023-02-09T08:46:09.741Z,59.31
2023-02-09T08:48:39.028Z,59.45
2023-02-09T08:51:07.213Z,59.03
2023-02-09T08:53:34.546Z,59.38
2023-02-09T08:56:01.217Z,59.22
2023-02-09T08:58:28.305Z,59.06
2023-02-09T09:00:57.497Z,59.34
2023-02-09T09:03:30.040Z,59.00
2023-02-09T09:06:05.705Z,59.03
2023-02-09T09:08:34.205Z,58.87
2023-02-09T09:11:01.066Z,59.19
2023-02-09T09:13:28.233Z,58.92
2023-02-09T09:15:55.510Z,58.68
2023-02-09T09:18:24.216Z,59.02
2023-02-09T09:20:51.637Z,58.69
2023-02-09T09:23:18.955Z,58.55
2023-02-09T09:25:45.960Z,58.93
2023-02-09T09:28:12.836Z,58.93
2023-02-09T09:30:39.534Z,58.81
2023-02-09T09:33:06.282Z,58.45
2023-02-09T09:35:33.211Z,58.69
2023-02-09T09:38:00.887Z,58.58
2023-02-09T09:40:34.413Z,58.77
2023-02-09T09:43:04.273Z,58.16
2023-02-09T09:45:35.392Z,58.40
2023-02-09T09:48:02.788Z,58.47
2023-02-09T09:50:39.211Z,58.53
2023-02-09T09:53:36.637Z,58.30
2023-02-09T09:56:08.862Z,58.71
2023-02-09T09:58:41.556Z,58.20
2023-02-09T10:01:16.655Z,58.10
2023-02-09T10:03:43.930Z,58.72
2023-02-09T10:06:17.921Z,58.49
2023-02-09T10:09:16.721Z,58.35
2023-02-09T10:11:51.907Z,58.13
2023-02-09T10:14:18.773Z,58.28
2023-02-09T10:16:45.764Z,58.41
2023-02-09T10:19:26.152Z,58.17
2023-02-09T10:21:54.012Z,58.38
2023-02-09T10:24:29.852Z,57.87
2023-02-09T10:27:08.305Z,58.46
2023-02-09T10:29:35.766Z,58.29
2023-02-09T10:32:11.461Z,58.27
2023-02-09T10:34:38.063Z,58.55
2023-02-09T10:37:30.704Z,58.26
2023-02-09T10:40:14.550Z,58.71
2023-02-09T10:42:55.492Z,58.33
2023-02-09T10:45:27.443Z,58.48
2023-02-09T10:48:08.431Z,58.42
2023-02-09T10:51:07.406Z,58.73
2023-02-09T10:53:41.737Z,58.12
2023-02-09T10:56:34.241Z,58.52
2023-02-09T10:59:04.422Z,58.59
2023-02-09T11:01:43.675Z,58.25
2023-02-09T11:04:16.309Z,58.56
2023-02-09T11:07:01.045Z,58.08
2023-02-09T11:09:31.778Z,58.62
2023-02-09T11:11:58.546Z,58.03
2023-02-09T11:14:25.552Z,58.35
2023-02-09T11:17:10.101Z,58.55
2023-02-09T11:19:48.608Z,58.40
2023-02-09T11:22:43.121Z,58.57
2023-02-09T11:25:21.495Z,58.57
2023-02-09T11:28:09.207Z,58.60
2023-02-09T11:30:35.857Z,58.65
2023-02-09T11:33:20.972Z,58.72
2023-02-09T11:36:05.098Z,58.87
2023-02-09T11:38:55.522Z,58.53
2023-02-09T11:41:52.840Z,58.66
2023-02-09T11:44:37.807Z,58.89
2023-02-09T11:47:07.919Z,58.95
2023-02-09T11:49:44.566Z,59.17
2023-02-09T11:52:16.923Z,59.17
2023-02-09T11:54:47.701Z,59.04
2023-02-09T11:57:22.749Z,59.34
2023-02-09T11:59:57.136Z,59.51
2023-02-09T12:02:52.991Z,59.18
2023-02-09T12:05:21.903Z,59.47
2023-02-09T12:08:22.427Z,59.40
2023-02-09T12:11:11.523Z,59.50
2023-02-09T12:14:01.801Z,59.65
2023-02-09T12:16:37.629Z,59.60
2023-02-09T12:19:06.647Z,59.64
2023-02-09T12:21:38.352Z,60.04
2023-02-09T12:24:28.066Z,60.11
2023-02-09T12:26:56.267Z,59.88
2023-02-09T12:29:36.982Z,60.34
2023-02-09T12:32:03.699Z,60.41
2023-02-09T12:34:49.729Z,60.38
2023-02-09T12:37:28.912Z,60.45
2023-02-09T12:40:18.554Z,60.47
2023-02-09T12:42:47.154Z,60.74
2023-02-09T12:45:42.044Z,60.70
2023-02-09T12:48:08.641Z,60.66
2023-02-09T12:50:48.045Z,60.93
2023-02-09T12:53:24.012Z,61.20
2023-02-09T12:56:12.664Z,61.07
2023-02-09T12:58:45.336Z,61.21
2023-02-09T13:01:15.990Z,61.23
2023-02-09T13:04:06.964Z,61.46
2023-02-09T13:06:43.575Z,61.72
2023-02-09T13:09:25.627Z,61.58
2023-02-09T13:12:03.624Z,61.71
2023-02-09T13:14:31.041Z,61.91
2023-02-09T13:17:09.708Z,62.00
2023-02-09T13:19:47.963Z,62.07
2023-02-09T13:22:33.751Z,62.06
2023-02-09T13:25:12.233Z,62.24
2023-02-09T13:27:48.868Z,62.47
2023-02-09T13:30:28.630Z,62.57
2023-02-09T13:33:01.865Z,62.89
2023-02-09T13:35:49.323Z,62.76
2023-02-09T13:38:18.839Z,62.80
2023-02-09T13:40:50.561Z,63.08
2023-02-09T13:43:29.307Z,63.09
2023-02-09T13:45:57.529Z,63.49
2023-02-09T13:48:38.041Z,63.45
2023-02-09T13:51:18.903Z,63.16
2023-02-09T13:53:59.910Z,63.27
2023-02-09T13:56:27.280Z,63.57
2023-02-09T13:58:55.317Z,63.50
2023-02-09T14:01:28.430Z,63.43
2023-02-09T14:04:12.318Z,63.45
2023-02-09T14:06:58.509Z,63.73
2023-02-09T14:09:29.709Z,63.98
2023-02-09T14:12:04.702Z,63.99
2023-02-09T14:14:54.826Z,64.05
2023-02-09T14:17:34.735Z,64.15
2023-02-09T14:20:03.440Z,64.39
2023-02-09T14:22:38.535Z,64.18
2023-02-09T14:25:14.000Z,64.55
2023-02-09T14:27:45.640Z,64.45
2023-02-09T14:30:25.862Z,64.75
2023-02-09T14:32:57.789Z,64.63
2023-02-09T14:35:33.839Z,64.80
2023-02-09T14:38:02.819Z,64.79
2023-02-09T14:40:34.762Z,64.75
2023-02-09T14:43:08.921Z,64.90
2023-02-09T14:45:48.617Z,64.74
2023-02-09T14:48:20.108Z,64.86
2023-02-09T14:50:49.485Z,65.19
2023-02-09T14:53:17.481Z,64.80
2023-02-09T14:55:44.760Z,64.91
2023-02-09T14:58:24.474Z,64.98
2023-02-09T15:00:52.997Z,64.92
2023-02-09T15:03:20.035Z,65.16
2023-02-09T15:05:48.880Z,65.23
2023-02-09T15:08:20.141Z,65.14
2023-02-09T15:11:01.286Z,65.11
2023-02-09T15:13:30.465Z,65.09
2023-02-09T15:15:57.288Z,65.40
2023-02-09T15:18:26.270Z,65.51
2023-02-09T15:20:53.021Z,65.42
2023-02-09T15:23:19.810Z,65.54
2023-02-09T15:25:46.954Z,65.79
2023-02-09T15:28:28.724Z,65.71
2023-02-09T15:30:56.941Z,65.63
2023-02-09T15:33:25.621Z,65.93
2023-02-09T15:35:52.568Z,65.77
2023-02-09T15:38:20.390Z,66.03
2023-02-09T15:41:07.923Z,66.28
2023-02-09T15:43:53.640Z,66.37
2023-02-09T15:46:44.938Z,66.17
2023-02-09T15:49:15.481Z,66.13
2023-02-09T15:51:45.069Z,66.35
2023-02-09T15:54:18.459Z,66.70
2023-02-09T15:56:45.478Z,66.64
2023-02-09T15:59:22.852Z,66.96
2023-02-09T16:01:50.849Z,66.55
2023-02-09T16:04:18.083Z,67.06
2023-02-09T16:06:49.060Z,66.80
2023-02-09T16:09:29.290Z,66.78
2023-02-09T16:11:56.046Z,66.76
2023-02-09T16:14:25.416Z,67.11
2023-02-09T16:16:52.618Z,66.92
2023-02-09T16:19:19.784Z,67.20
2023-02-09T16:21:50.790Z,67.12
2023-02-09T16:24:42.070Z,67.00
2023-02-09T16:27:21.815Z,67.00
2023-02-09T16:29:48.565Z,67.39
2023-02-09T16:32:18.189Z,67.16
2023-02-09T16:34:45.672Z,67.19
2023-02-09T16:37:30.907Z,67.61
2023-02-09T16:40:01.725Z,67.57
2023-02-09T16:42:29.672Z,67.61
2023-02-09T16:45:00.426Z,67.66
2023-02-09T16:47:28.465Z,67.83
2023-02-09T16:50:02.881Z,67.61
2023-02-09T16:52:30.462Z,67.78
2023-02-09T16:54:59.690Z,67.83
2023-02-09T16:57:27.766Z,68.05
2023-02-09T16:59:54.917Z,68.23
2023-02-09T17:02:42.568Z,68.24
2023-02-09T17:05:24.940Z,67.92
2023-02-09T17:07:55.857Z,68.02
2023-02-09T17:10:26.209Z,68.22
2023-02-09T17:12:53.878Z,68.47
2023-02-09T17:15:30.118Z,68.16
2023-02-09T17:18:02.600Z,68.46
2023-02-09T17:20:37.422Z,68.47
2023-02-09T17:23:04.828Z,68.25
2023-02-09T17:25:31.755Z,68.34
2023-02-09T17:27:58.560Z,68.42
2023-02-09T17:30:25.666Z,68.28
2023-02-09T17:32:59.647Z,68.40
2023-02-09T17:35:53.124Z,68.51
2023-02-09T17:38:26.469Z,68.85
2023-02-09T17:40:59.014Z,68.22
2023-02-09T17:43:25.962Z,68.67
2023-02-09T17:45:52.962Z,68.26
2023-02-09T17:48:21.338Z,68.25
2023-02-09T17:50:49.779Z,68.47
2023-02-09T17:53:22.658Z,68.69
2023-02-09T17:55:49.903Z,68.61
2023-02-09T17:58:17.191Z,68.65
2023-02-09T18:00:45.202Z,68.67
2023-02-09T18:03:16.118Z,68.96
2023-02-09T18:05:43.478Z,69.01
2023-02-09T18:08:11.301Z,69.02
2023-02-09T18:10:38.579Z,68.80
2023-02-09T18:13:05.282Z,68.91
2023-02-09T18:15:36.861Z,69.15
2023-02-09T18:18:04.255Z,69.13
2023-02-09T18:20:35.123Z,69.11
2023-02-09T18:23:03.992Z,69.09
2023-02-09T18:25:36.742Z,69.20
2023-02-09T18:28:06.738Z,69.17
2023-02-09T18:30:37.455Z,69.27
2023-02-09T18:33:05.429Z,69.40
2023-02-09T18:35:36.633Z,69.26
2023-02-09T18:38:05.073Z,69.18
2023-02-09T18:40:32.501Z,69.07
2023-02-09T18:43:00.791Z,69.22
2023-02-09T18:45:28.106Z,69.42
2023-02-09T18:47:54.759Z,69.09
2023-02-09T18:50:27.657Z,69.34
2023-02-09T18:53:04.736Z,69.09
2023-02-09T18:55:35.250Z,69.14
2023-02-09T18:58:04.653Z,69.09
2023-02-09T19:00:32.371Z,69.27
2023-02-09T19:02:59.694Z,69.44
2023-02-09T19:05:30.056Z,69.33
2023-02-09T19:07:57.246Z,69.49
2023-02-09T19:10:24.124Z,69.38
2023-02-09T19:12:50.866Z,69.41
2023-02-09T19:15:18.992Z,69.53
2023-02-09T19:17:46.681Z,69.68
2023-02-09T19:20:21.446Z,69.91
2023-02-09T19:22:51.494Z,69.45
2023-02-09T19:25:19.935Z,69.60
2023-02-09T19:27:46.640Z,69.43
2023-02-09T19:30:24.822Z,69.43
2023-02-09T19:32:52.832Z,69.60
2023-02-09T19:35:22.703Z,69.63
2023-02-09T19:37:57.555Z,69.63
2023-02-09T19:40:36.888Z,69.37
2023-02-09T19:43:06.094Z,69.72
2023-02-09T19:45:36.659Z,69.84
2023-02-09T19:48:07.594Z,69.71
2023-02-09T19:50:36.893Z,69.69
2023-02-09T19:53:05.876Z,69.73
2023-02-09T19:55:33.625Z,69.62
2023-02-09T19:58:00.333Z,69.62
2023-02-09T20:00:27.103Z,69.93
2023-02-09T20:02:53.862Z,69.69
2023-02-09T20:05:20.712Z,69.64
2023-02-09T20:07:48.874Z,69.70
2023-02-09T20:10:15.616Z,69.92
2023-02-09T20:12:42.354Z,69.74
2023-02-09T20:15:09.064Z,69.83
2023-02-09T20:17:35.954Z,69.66
2023-02-09T20:20:03.840Z,69.60
2023-02-09T20:22:30.620Z,69.72
2023-02-09T20:24:57.328Z,69.81
2023-02-09T20:27:24.152Z,70.11
2023-02-09T20:29:50.805Z,69.88
2023-02-09T20:32:17.720Z,69.95
2023-02-09T20:34:44.402Z,70.04
2023-02-09T20:37:12.109Z,69.71
2023-02-09T20:39:38.774Z,69.97
2023-02-09T20:42:24.336Z,70.14
2023-02-09T20:45:09.586Z,69.91
2023-02-09T20:47:36.519Z,69.82
2023-02-09T20:50:04.304Z,69.93
2023-02-09T20:52:31.434Z,70.09
2023-02-09T20:54:58.268Z,69.97
2023-02-09T20:57:29.514Z,69.92
2023-02-09T21:00:00.389Z,70.01
2023-02-09T21:02:27.782Z,70.08
2023-02-09T21:04:59.827Z,70.14
2023-02-09T21:07:26.639Z,69.98
2023-02-09T21:09:54.958Z,69.87
2023-02-09T21:12:22.357Z,69.96
2023-02-09T21:14:50.820Z,69.60
2023-02-09T21:17:19.364Z,69.59
2023-02-09T21:19:46.679Z,69.94
2023-02-09T21:22:16.995Z,69.86
2023-02-09T21:24:44.221Z,70.13
2023-02-09T21:27:10.889Z,70.12
2023-02-09T21:29:37.681Z,69.84
2023-02-09T21:32:06.613Z,69.84
2023-02-09T21:34:33.410Z,70.30
2023-02-09T21:37:00.246Z,70.14
2023-02-09T21:39:27.005Z,70.22
2023-02-09T21:42:12.010Z,70.29
2023-02-09T21:44:38.737Z,70.24
2023-02-09T21:47:06.176Z,70.36
2023-02-09T21:49:33.846Z,70.68
2023-02-09T21:52:00.580Z,70.25
2023-02-09T21:54:28.781Z,70.42
2023-02-09T21:56:55.774Z,70.41
2023-02-09T21:59:22.435Z,70.46
2023-02-09T22:01:49.152Z,70.20
2023-02-09T22:04:15.994Z,71.08
2023-02-09T22:06:42.780Z,71.35
2023-02-09T22:09:09.674Z,71.38
2023-02-09T22:11:36.377Z,71.60
2023-02-09T22:14:03.331Z,71.52
2023-02-09T22:16:30.616Z,71.58
2023-02-09T22:18:58.538Z,71.72
2023-02-09T22:21:25.840Z,71.23
2023-02-09T22:23:53.567Z,71.67
2023-02-09T22:26:20.497Z,70.70
2023-02-09T22:28:47.264Z,70.40
2023-02-09T22:31:17.705Z,70.28
2023-02-09T22:33:45.207Z,69.72
2023-02-09T22:36:17.432Z,69.09
2023-02-09T22:38:45.171Z,68.25
2023-02-09T22:41:23.628Z,66.18
2023-02-09T22:44:17.522Z,64.23
2023-02-09T22:46:46.007Z,62.92
2023-02-09T22:49:20.467Z,61.67
2023-02-09T22:51:49.144Z,61.76
2023-02-09T22:54:17.794Z,61.05
2023-02-09T22:56:44.544Z,60.61
2023-02-09T22:59:13.668Z,59.90
2023-02-09T23:01:41.363Z,58.45
2023-02-09T23:04:08.260Z,58.64
2023-02-09T23:06:35.086Z,57.43
2023-02-09T23:09:07.121Z,57.36
2023-02-09T23:11:34.077Z,57.28
2023-02-09T23:14:10.829Z,56.70
2023-02-09T23:16:39.457Z,56.32
2023-02-09T23:19:08.496Z,56.42
2023-02-09T23:21:38.120Z,56.49
2023-02-09T23:24:05.316Z,56.45
2023-02-09T23:26:32.536Z,56.94
2023-02-09T23:29:01.783Z,56.88
2023-02-09T23:31:29.270Z,56.25
2023-02-09T23:33:56.404Z,55.40
2023-02-09T23:36:29.265Z,55.26
2023-02-09T23:38:58.958Z,54.45
2023-02-09T23:41:26.876Z,54.56
2023-02-09T23:43:54.049Z,54.59
2023-02-09T23:46:23.377Z,54.84
2023-02-09T23:48:53.299Z,54.34
2023-02-09T23:51:26.843Z,54.62
2023-02-09T23:53:54.900Z,54.65
2023-02-09T23:56:22.937Z,53.25
2023-02-09T23:58:51.284Z,53.71
